sensor_id;sensor_type;location;lat;lon;timestamp;P1;durP1;ratioP1;P2;durP2;ratioP2
32824;SDS011;51060;42.640;24.356;2023-03-01T09:00:27;11.37;;;9.50;;
32824;SDS011;51060;42.640;24.356;2023-03-01T09:02:53;9.90;;;8.33;;
32824;SDS011;51060;42.640;24.356;2023-03-01T09:05:18;6.53;;;5.20;;
32824;SDS011;51060;42.640;24.356;2023-03-01T09:07:44;9.87;;;6.93;;
32824;SDS011;51060;42.640;24.356;2023-03-01T09:10:10;10.07;;;8.27;;
32824;SDS011;51060;42.640;24.356;2023-03-01T09:12:35;8.03;;;5.67;;
32824;SDS011;51060;42.640;24.356;2023-03-01T09:15:01;10.73;;;7.97;;
32824;SDS011;51060;42.640;24.356;2023-03-01T09:17:27;9.50;;;7.43;;
32824;SDS011;51060;42.640;24.356;2023-03-01T09:19:52;10.03;;;8.00;;
32824;SDS011;51060;42.640;24.356;2023-03-01T09:22:21;9.90;;;6.93;;
32824;SDS011;51060;42.640;24.356;2023-03-01T09:24:49;12.13;;;8.03;;
32824;SDS011;51060;42.640;24.356;2023-03-01T09:27:15;20.87;;;13.07;;
32824;SDS011;51060;42.640;24.356;2023-03-01T09:29:43;12.70;;;9.97;;
32824;SDS011;51060;42.640;24.356;2023-03-01T09:32:09;11.57;;;8.33;;
32824;SDS011;51060;42.640;24.356;2023-03-01T09:34:35;16.30;;;11.40;;
32824;SDS011;51060;42.640;24.356;2023-03-01T09:37:24;11.13;;;8.40;;
32824;SDS011;51060;42.640;24.356;2023-03-01T09:39:49;8.23;;;6.63;;
32824;SDS011;51060;42.640;24.356;2023-03-01T09:42:15;8.40;;;6.27;;
32824;SDS011;51060;42.640;24.356;2023-03-01T09:47:22;6.87;;;5.67;;
32824;SDS011;51060;42.640;24.356;2023-03-01T09:50:33;8.67;;;7.03;;
32824;SDS011;51060;42.640;24.356;2023-03-01T09:52:43;4.97;;;3.80;;
32824;SDS011;51060;42.640;24.356;2023-03-01T09:55:15;5.33;;;3.40;;
32824;SDS011;51060;42.640;24.356;2023-03-01T09:57:45;5.80;;;5.23;;
32824;SDS011;51060;42.640;24.356;2023-03-01T10:05:50;7.40;;;5.80;;
32824;SDS011;51060;42.640;24.356;2023-03-01T10:11:02;3.57;;;2.40;;
32824;SDS011;51060;42.640;24.356;2023-03-01T10:16:37;3.40;;;2.30;;
32824;SDS011;51060;42.640;24.356;2023-03-01T10:19:14;2.90;;;2.70;;
32824;SDS011;51060;42.640;24.356;2023-03-01T10:22:04;4.17;;;3.77;;
32824;SDS011;51060;42.640;24.356;2023-03-01T10:24:36;7.47;;;5.57;;
32824;SDS011;51060;42.640;24.356;2023-03-01T10:27:04;8.40;;;6.03;;
32824;SDS011;51060;42.640;24.356;2023-03-01T10:29:41;5.50;;;4.30;;
32824;SDS011;51060;42.640;24.356;2023-03-01T10:32:26;5.17;;;4.40;;
32824;SDS011;51060;42.640;24.356;2023-03-01T10:34:51;4.40;;;4.00;;
32824;SDS011;51060;42.640;24.356;2023-03-01T10:37:18;4.30;;;3.67;;
32824;SDS011;51060;42.640;24.356;2023-03-01T10:40:07;3.73;;;3.00;;
32824;SDS011;51060;42.640;24.356;2023-03-01T10:42:35;4.50;;;3.03;;
32824;SDS011;51060;42.640;24.356;2023-03-01T10:45:16;5.70;;;4.30;;
32824;SDS011;51060;42.640;24.356;2023-03-01T10:50:37;5.13;;;4.60;;
32824;SDS011;51060;42.640;24.356;2023-03-01T10:53:04;4.93;;;3.47;;
32824;SDS011;51060;42.640;24.356;2023-03-01T10:55:34;5.77;;;4.53;;
32824;SDS011;51060;42.640;24.356;2023-03-01T11:00:58;7.27;;;5.27;;
32824;SDS011;51060;42.640;24.356;2023-03-01T11:03:30;8.73;;;5.83;;
32824;SDS011;51060;42.640;24.356;2023-03-01T11:05:59;12.70;;;9.47;;
32824;SDS011;51060;42.640;24.356;2023-03-01T11:08:35;11.90;;;10.63;;
32824;SDS011;51060;42.640;24.356;2023-03-01T11:11:41;10.67;;;9.47;;
32824;SDS011;51060;42.640;24.356;2023-03-01T11:16:35;5.13;;;4.40;;
32824;SDS011;51060;42.640;24.356;2023-03-01T11:21:38;8.97;;;7.30;;
32824;SDS011;51060;42.640;24.356;2023-03-01T11:24:09;6.87;;;5.97;;
32824;SDS011;51060;42.640;24.356;2023-03-01T11:26:37;8.73;;;6.17;;
32824;SDS011;51060;42.640;24.356;2023-03-01T11:29:11;6.90;;;4.70;;
32824;SDS011;51060;42.640;24.356;2023-03-01T11:31:41;7.17;;;6.27;;
32824;SDS011;51060;42.640;24.356;2023-03-01T11:34:32;7.53;;;6.40;;
32824;SDS011;51060;42.640;24.356;2023-03-01T11:36:59;6.50;;;4.43;;
32824;SDS011;51060;42.640;24.356;2023-03-01T11:39:41;6.57;;;4.90;;
32824;SDS011;51060;42.640;24.356;2023-03-01T11:44:47;7.00;;;4.57;;
32824;SDS011;51060;42.640;24.356;2023-03-01T11:55:25;6.37;;;5.50;;
32824;SDS011;51060;42.640;24.356;2023-03-01T12:15:39;5.30;;;4.33;;
32824;SDS011;51060;42.640;24.356;2023-03-01T12:20:58;7.17;;;5.70;;
32824;SDS011;51060;42.640;24.356;2023-03-01T12:24:01;9.00;;;6.67;;
32824;SDS011;51060;42.640;24.356;2023-03-01T12:26:44;19.87;;;12.80;;
32824;SDS011;51060;42.640;24.356;2023-03-01T12:34:46;15.80;;;11.50;;
32824;SDS011;51060;42.640;24.356;2023-03-01T12:37:33;14.70;;;12.23;;
32824;SDS011;51060;42.640;24.356;2023-03-01T12:40:23;16.87;;;12.50;;
32824;SDS011;51060;42.640;24.356;2023-03-01T12:45:44;11.93;;;10.70;;
32824;SDS011;51060;42.640;24.356;2023-03-01T12:51:14;15.73;;;10.47;;
32824;SDS011;51060;42.640;24.356;2023-03-01T12:53:45;11.87;;;9.40;;
32824;SDS011;51060;42.640;24.356;2023-03-01T12:56:13;17.17;;;13.37;;
32824;SDS011;51060;42.640;24.356;2023-03-01T12:58:55;11.77;;;7.40;;
32824;SDS011;51060;42.640;24.356;2023-03-01T13:01:28;8.10;;;6.20;;
32824;SDS011;51060;42.640;24.356;2023-03-01T13:04:20;10.30;;;7.03;;
32824;SDS011;51060;42.640;24.356;2023-03-01T13:06:55;10.20;;;8.93;;
32824;SDS011;51060;42.640;24.356;2023-03-01T13:10:06;12.10;;;9.13;;
32824;SDS011;51060;42.640;24.356;2023-03-01T13:15:54;9.47;;;8.37;;
32824;SDS011;51060;42.640;24.356;2023-03-01T13:18:27;4.67;;;4.20;;
32824;SDS011;51060;42.640;24.356;2023-03-01T13:20:53;15.67;;;12.33;;
32824;SDS011;51060;42.640;24.356;2023-03-01T13:26:09;26.93;;;18.47;;
32824;SDS011;51060;42.640;24.356;2023-03-01T13:31:56;19.97;;;13.83;;
32824;SDS011;51060;42.640;24.356;2023-03-01T13:34:00;30.67;;;19.60;;
32824;SDS011;51060;42.640;24.356;2023-03-01T13:47:05;17.07;;;11.37;;
32824;SDS011;51060;42.640;24.356;2023-03-01T13:50:16;14.10;;;10.40;;
32824;SDS011;51060;42.640;24.356;2023-03-01T13:57:39;25.47;;;18.07;;
32824;SDS011;51060;42.640;24.356;2023-03-01T14:00:24;18.13;;;13.77;;
32824;SDS011;51060;42.640;24.356;2023-03-01T14:03:05;22.20;;;18.67;;
32824;SDS011;51060;42.640;24.356;2023-03-01T14:05:34;18.67;;;15.43;;
32824;SDS011;51060;42.640;24.356;2023-03-01T14:08:01;20.90;;;17.10;;
32824;SDS011;51060;42.640;24.356;2023-03-01T14:10:42;18.30;;;14.00;;
32824;SDS011;51060;42.640;24.356;2023-03-01T14:18:49;3.10;;;2.80;;
32824;SDS011;51060;42.640;24.356;2023-03-01T14:21:45;8.33;;;6.73;;
32824;SDS011;51060;42.640;24.356;2023-03-01T14:24:19;9.43;;;7.90;;
32824;SDS011;51060;42.640;24.356;2023-03-01T14:26:46;10.90;;;8.37;;
32824;SDS011;51060;42.640;24.356;2023-03-01T14:29:23;11.30;;;8.97;;
32824;SDS011;51060;42.640;24.356;2023-03-01T14:31:50;13.07;;;9.03;;
32824;SDS011;51060;42.640;24.356;2023-03-01T14:34:19;13.07;;;9.57;;
32824;SDS011;51060;42.640;24.356;2023-03-01T14:36:46;10.90;;;8.33;;
32824;SDS011;51060;42.640;24.356;2023-03-01T14:39:19;40.37;;;32.73;;
32824;SDS011;51060;42.640;24.356;2023-03-01T14:41:46;10.57;;;8.63;;
32824;SDS011;51060;42.640;24.356;2023-03-01T14:44:16;8.70;;;7.53;;
32824;SDS011;51060;42.640;24.356;2023-03-01T14:46:45;5.13;;;4.50;;
32824;SDS011;51060;42.640;24.356;2023-03-01T14:51:42;10.70;;;9.33;;
32824;SDS011;51060;42.640;24.356;2023-03-01T14:54:25;10.83;;;8.43;;
32824;SDS011;51060;42.640;24.356;2023-03-01T14:56:53;16.77;;;13.93;;
32824;SDS011;51060;42.640;24.356;2023-03-01T14:59:23;11.63;;;9.37;;
32824;SDS011;51060;42.640;24.356;2023-03-01T15:01:50;9.20;;;7.80;;
32824;SDS011;51060;42.640;24.356;2023-03-01T15:04:16;9.60;;;6.50;;
32824;SDS011;51060;42.640;24.356;2023-03-01T15:06:43;7.67;;;6.07;;
32824;SDS011;51060;42.640;24.356;2023-03-01T15:09:15;10.07;;;7.97;;
32824;SDS011;51060;42.640;24.356;2023-03-01T15:11:42;14.57;;;10.83;;
32824;SDS011;51060;42.640;24.356;2023-03-01T15:16:54;20.00;;;12.93;;
32824;SDS011;51060;42.640;24.356;2023-03-01T15:19:20;24.43;;;15.73;;
32824;SDS011;51060;42.640;24.356;2023-03-01T15:21:48;41.97;;;24.90;;
32824;SDS011;51060;42.640;24.356;2023-03-01T15:24:20;33.00;;;20.73;;
32824;SDS011;51060;42.640;24.356;2023-03-01T15:26:53;25.43;;;16.83;;
32824;SDS011;51060;42.640;24.356;2023-03-01T15:29:26;20.33;;;13.73;;
32824;SDS011;51060;42.640;24.356;2023-03-01T15:32:05;22.47;;;14.93;;
32824;SDS011;51060;42.640;24.356;2023-03-01T15:34:47;24.03;;;16.27;;
32824;SDS011;51060;42.640;24.356;2023-03-01T15:40:19;23.93;;;15.57;;
32824;SDS011;51060;42.640;24.356;2023-03-01T15:43:04;14.60;;;9.60;;
32824;SDS011;51060;42.640;24.356;2023-03-01T15:45:31;14.60;;;9.00;;
32824;SDS011;51060;42.640;24.356;2023-03-01T15:48:32;18.87;;;10.83;;
32824;SDS011;51060;42.640;24.356;2023-03-01T15:50:55;36.10;;;18.60;;
32824;SDS011;51060;42.640;24.356;2023-03-01T15:53:21;15.57;;;9.30;;
32824;SDS011;51060;42.640;24.356;2023-03-01T15:55:47;19.60;;;12.33;;
32824;SDS011;51060;42.640;24.356;2023-03-01T15:58:16;15.10;;;9.67;;
32824;SDS011;51060;42.640;24.356;2023-03-01T16:00:46;20.73;;;11.73;;
32824;SDS011;51060;42.640;24.356;2023-03-01T16:03:14;22.67;;;11.50;;
32824;SDS011;51060;42.640;24.356;2023-03-01T16:05:46;14.40;;;10.90;;
32824;SDS011;51060;42.640;24.356;2023-03-01T16:08:12;19.20;;;13.90;;
32824;SDS011;51060;42.640;24.356;2023-03-01T16:10:38;13.03;;;7.80;;
32824;SDS011;51060;42.640;24.356;2023-03-01T16:13:04;10.70;;;6.97;;
32824;SDS011;51060;42.640;24.356;2023-03-01T16:15:31;10.50;;;8.13;;
32824;SDS011;51060;42.640;24.356;2023-03-01T16:17:58;15.27;;;13.63;;
32824;SDS011;51060;42.640;24.356;2023-03-01T16:20:24;21.63;;;19.33;;
32824;SDS011;51060;42.640;24.356;2023-03-01T16:22:50;11.97;;;9.43;;
32824;SDS011;51060;42.640;24.356;2023-03-01T16:25:17;11.60;;;9.57;;
32824;SDS011;51060;42.640;24.356;2023-03-01T16:27:47;18.70;;;16.70;;
32824;SDS011;51060;42.640;24.356;2023-03-01T16:30:15;16.37;;;13.73;;
32824;SDS011;51060;42.640;24.356;2023-03-01T16:32:42;15.40;;;13.80;;
32824;SDS011;51060;42.640;24.356;2023-03-01T16:35:09;15.03;;;12.60;;
32824;SDS011;51060;42.640;24.356;2023-03-01T16:37:36;22.60;;;16.90;;
32824;SDS011;51060;42.640;24.356;2023-03-01T16:40:03;20.40;;;15.47;;
32824;SDS011;51060;42.640;24.356;2023-03-01T16:42:35;19.77;;;15.27;;
32824;SDS011;51060;42.640;24.356;2023-03-01T16:45:02;22.93;;;17.23;;
32824;SDS011;51060;42.640;24.356;2023-03-01T16:47:28;23.83;;;17.57;;
32824;SDS011;51060;42.640;24.356;2023-03-01T16:49:54;23.80;;;18.20;;
32824;SDS011;51060;42.640;24.356;2023-03-01T16:52:20;22.20;;;18.80;;
32824;SDS011;51060;42.640;24.356;2023-03-01T16:54:46;25.13;;;17.07;;
32824;SDS011;51060;42.640;24.356;2023-03-01T16:57:12;18.43;;;12.57;;
32824;SDS011;51060;42.640;24.356;2023-03-01T16:59:37;11.63;;;8.63;;
32824;SDS011;51060;42.640;24.356;2023-03-01T17:02:03;18.97;;;16.00;;
32824;SDS011;51060;42.640;24.356;2023-03-01T17:04:31;22.00;;;19.27;;
32824;SDS011;51060;42.640;24.356;2023-03-01T17:06:56;26.93;;;22.27;;
32824;SDS011;51060;42.640;24.356;2023-03-01T17:09:22;34.40;;;25.37;;
32824;SDS011;51060;42.640;24.356;2023-03-01T17:11:48;37.03;;;28.10;;
32824;SDS011;51060;42.640;24.356;2023-03-01T17:14:14;32.80;;;26.33;;
32824;SDS011;51060;42.640;24.356;2023-03-01T17:16:41;26.63;;;21.57;;
32824;SDS011;51060;42.640;24.356;2023-03-01T17:19:08;27.80;;;20.30;;
32824;SDS011;51060;42.640;24.356;2023-03-01T17:21:34;18.17;;;13.60;;
32824;SDS011;51060;42.640;24.356;2023-03-01T17:23:59;15.13;;;10.87;;
32824;SDS011;51060;42.640;24.356;2023-03-01T17:26:26;30.47;;;23.67;;
32824;SDS011;51060;42.640;24.356;2023-03-01T17:28:54;24.40;;;16.97;;
32824;SDS011;51060;42.640;24.356;2023-03-01T17:31:20;26.73;;;22.37;;
32824;SDS011;51060;42.640;24.356;2023-03-01T17:33:47;20.53;;;16.67;;
32824;SDS011;51060;42.640;24.356;2023-03-01T17:36:14;16.73;;;13.30;;
32824;SDS011;51060;42.640;24.356;2023-03-01T17:38:40;13.90;;;11.40;;
32824;SDS011;51060;42.640;24.356;2023-03-01T17:41:05;13.83;;;11.23;;
32824;SDS011;51060;42.640;24.356;2023-03-01T17:43:31;13.97;;;10.90;;
32824;SDS011;51060;42.640;24.356;2023-03-01T17:45:59;17.77;;;13.13;;
32824;SDS011;51060;42.640;24.356;2023-03-01T17:48:24;12.50;;;9.20;;
32824;SDS011;51060;42.640;24.356;2023-03-01T17:50:50;10.90;;;8.37;;
32824;SDS011;51060;42.640;24.356;2023-03-01T17:53:16;7.17;;;5.63;;
32824;SDS011;51060;42.640;24.356;2023-03-01T17:55:42;8.17;;;6.80;;
32824;SDS011;51060;42.640;24.356;2023-03-01T17:58:12;6.60;;;5.70;;
32824;SDS011;51060;42.640;24.356;2023-03-01T18:00:38;5.83;;;4.37;;
32824;SDS011;51060;42.640;24.356;2023-03-01T18:03:04;7.57;;;5.90;;
32824;SDS011;51060;42.640;24.356;2023-03-01T18:05:36;8.27;;;6.67;;
32824;SDS011;51060;42.640;24.356;2023-03-01T18:08:05;6.03;;;4.37;;
32824;SDS011;51060;42.640;24.356;2023-03-01T18:10:31;8.60;;;6.10;;
32824;SDS011;51060;42.640;24.356;2023-03-01T18:12:57;14.33;;;9.50;;
32824;SDS011;51060;42.640;24.356;2023-03-01T18:15:23;11.03;;;8.00;;
32824;SDS011;51060;42.640;24.356;2023-03-01T18:17:49;9.47;;;6.60;;
32824;SDS011;51060;42.640;24.356;2023-03-01T18:20:14;13.57;;;8.00;;
32824;SDS011;51060;42.640;24.356;2023-03-01T18:22:42;10.13;;;7.63;;
32824;SDS011;51060;42.640;24.356;2023-03-01T18:25:07;10.10;;;7.20;;
32824;SDS011;51060;42.640;24.356;2023-03-01T18:27:33;8.33;;;6.83;;
32824;SDS011;51060;42.640;24.356;2023-03-01T18:30:01;9.63;;;6.87;;
32824;SDS011;51060;42.640;24.356;2023-03-01T18:32:27;8.43;;;6.63;;
32824;SDS011;51060;42.640;24.356;2023-03-01T18:34:53;10.17;;;7.90;;
32824;SDS011;51060;42.640;24.356;2023-03-01T18:37:19;135.97;;;58.30;;
32824;SDS011;51060;42.640;24.356;2023-03-01T18:39:44;111.00;;;59.03;;
32824;SDS011;51060;42.640;24.356;2023-03-01T18:42:10;76.70;;;45.80;;
32824;SDS011;51060;42.640;24.356;2023-03-01T18:44:35;53.93;;;32.57;;
32824;SDS011;51060;42.640;24.356;2023-03-01T18:47:02;68.30;;;44.80;;
32824;SDS011;51060;42.640;24.356;2023-03-01T18:49:28;41.37;;;26.33;;
32824;SDS011;51060;42.640;24.356;2023-03-01T18:51:53;29.90;;;19.93;;
32824;SDS011;51060;42.640;24.356;2023-03-01T18:54:19;42.97;;;32.17;;
32824;SDS011;51060;42.640;24.356;2023-03-01T18:56:45;17.53;;;12.70;;
32824;SDS011;51060;42.640;24.356;2023-03-01T18:59:10;16.47;;;12.50;;
32824;SDS011;51060;42.640;24.356;2023-03-01T19:01:36;32.20;;;23.43;;
32824;SDS011;51060;42.640;24.356;2023-03-01T19:04:02;34.43;;;25.83;;
32824;SDS011;51060;42.640;24.356;2023-03-01T19:06:29;23.50;;;17.40;;
32824;SDS011;51060;42.640;24.356;2023-03-01T19:08:57;15.20;;;11.70;;
32824;SDS011;51060;42.640;24.356;2023-03-01T19:11:23;10.80;;;7.83;;
32824;SDS011;51060;42.640;24.356;2023-03-01T19:13:51;21.63;;;14.53;;
32824;SDS011;51060;42.640;24.356;2023-03-01T19:16:20;23.27;;;16.37;;
32824;SDS011;51060;42.640;24.356;2023-03-01T19:18:48;16.83;;;13.17;;
32824;SDS011;51060;42.640;24.356;2023-03-01T19:21:19;12.53;;;9.73;;
32824;SDS011;51060;42.640;24.356;2023-03-01T19:23:46;8.87;;;7.27;;
32824;SDS011;51060;42.640;24.356;2023-03-01T19:26:13;8.47;;;7.30;;
32824;SDS011;51060;42.640;24.356;2023-03-01T19:28:40;12.77;;;9.80;;
32824;SDS011;51060;42.640;24.356;2023-03-01T19:31:07;14.30;;;11.47;;
32824;SDS011;51060;42.640;24.356;2023-03-01T19:33:34;17.10;;;13.57;;
32824;SDS011;51060;42.640;24.356;2023-03-01T19:36:01;20.17;;;14.40;;
32824;SDS011;51060;42.640;24.356;2023-03-01T19:38:27;21.93;;;16.27;;
32824;SDS011;51060;42.640;24.356;2023-03-01T19:40:54;19.07;;;15.00;;
32824;SDS011;51060;42.640;24.356;2023-03-01T19:43:20;17.23;;;13.77;;
32824;SDS011;51060;42.640;24.356;2023-03-01T19:45:52;15.27;;;12.90;;
32824;SDS011;51060;42.640;24.356;2023-03-01T19:48:19;13.83;;;11.00;;
32824;SDS011;51060;42.640;24.356;2023-03-01T19:50:45;12.67;;;9.87;;
32824;SDS011;51060;42.640;24.356;2023-03-01T19:53:11;21.20;;;16.00;;
32824;SDS011;51060;42.640;24.356;2023-03-01T19:55:37;19.50;;;15.60;;
32824;SDS011;51060;42.640;24.356;2023-03-01T19:58:04;12.43;;;9.63;;
32824;SDS011;51060;42.640;24.356;2023-03-01T20:00:33;12.50;;;9.00;;
32824;SDS011;51060;42.640;24.356;2023-03-01T20:02:59;10.93;;;9.63;;
32824;SDS011;51060;42.640;24.356;2023-03-01T20:05:25;16.33;;;12.13;;
32824;SDS011;51060;42.640;24.356;2023-03-01T20:07:53;15.70;;;12.00;;
32824;SDS011;51060;42.640;24.356;2023-03-01T20:10:21;7.87;;;5.93;;
32824;SDS011;51060;42.640;24.356;2023-03-01T20:12:51;9.00;;;6.80;;
32824;SDS011;51060;42.640;24.356;2023-03-01T20:15:17;12.93;;;8.07;;
32824;SDS011;51060;42.640;24.356;2023-03-01T20:17:43;13.13;;;9.53;;
32824;SDS011;51060;42.640;24.356;2023-03-01T20:20:08;15.07;;;10.27;;
32824;SDS011;51060;42.640;24.356;2023-03-01T20:22:34;15.93;;;10.40;;
32824;SDS011;51060;42.640;24.356;2023-03-01T20:25:00;15.17;;;10.30;;
32824;SDS011;51060;42.640;24.356;2023-03-01T20:27:25;23.50;;;12.87;;
32824;SDS011;51060;42.640;24.356;2023-03-01T20:29:51;18.60;;;11.87;;
32824;SDS011;51060;42.640;24.356;2023-03-01T20:32:18;18.43;;;11.80;;
32824;SDS011;51060;42.640;24.356;2023-03-01T20:34:43;15.30;;;9.73;;
32824;SDS011;51060;42.640;24.356;2023-03-01T20:37:09;7.73;;;5.17;;
32824;SDS011;51060;42.640;24.356;2023-03-01T20:39:34;7.43;;;4.60;;
32824;SDS011;51060;42.640;24.356;2023-03-01T20:42:00;7.57;;;4.73;;
32824;SDS011;51060;42.640;24.356;2023-03-01T20:44:26;9.73;;;6.63;;
32824;SDS011;51060;42.640;24.356;2023-03-01T20:46:51;11.00;;;7.53;;
32824;SDS011;51060;42.640;24.356;2023-03-01T20:49:17;12.97;;;8.67;;
32824;SDS011;51060;42.640;24.356;2023-03-01T20:51:42;12.63;;;8.47;;
32824;SDS011;51060;42.640;24.356;2023-03-01T20:54:08;12.90;;;8.83;;
32824;SDS011;51060;42.640;24.356;2023-03-01T20:56:34;9.50;;;7.87;;
32824;SDS011;51060;42.640;24.356;2023-03-01T20:59:05;13.20;;;9.13;;
32824;SDS011;51060;42.640;24.356;2023-03-01T21:01:34;11.40;;;8.00;;
32824;SDS011;51060;42.640;24.356;2023-03-01T21:04:00;12.00;;;7.50;;
32824;SDS011;51060;42.640;24.356;2023-03-01T21:06:26;16.70;;;10.03;;
32824;SDS011;51060;42.640;24.356;2023-03-01T21:08:55;11.83;;;8.40;;
32824;SDS011;51060;42.640;24.356;2023-03-01T21:11:21;14.57;;;8.57;;
32824;SDS011;51060;42.640;24.356;2023-03-01T21:13:51;14.43;;;9.40;;
32824;SDS011;51060;42.640;24.356;2023-03-01T21:16:17;18.10;;;12.17;;
32824;SDS011;51060;42.640;24.356;2023-03-01T21:18:43;13.30;;;9.67;;
32824;SDS011;51060;42.640;24.356;2023-03-01T21:21:10;12.47;;;8.47;;
32824;SDS011;51060;42.640;24.356;2023-03-01T21:23:38;10.97;;;8.23;;
32824;SDS011;51060;42.640;24.356;2023-03-01T21:28:34;13.43;;;9.83;;
32824;SDS011;51060;42.640;24.356;2023-03-01T21:31:07;14.13;;;10.17;;
32824;SDS011;51060;42.640;24.356;2023-03-01T21:33:35;30.00;;;18.23;;
32824;SDS011;51060;42.640;24.356;2023-03-01T21:36:02;49.03;;;27.37;;
32824;SDS011;51060;42.640;24.356;2023-03-01T21:38:29;27.33;;;16.87;;
32824;SDS011;51060;42.640;24.356;2023-03-01T21:41:06;35.77;;;19.90;;
32824;SDS011;51060;42.640;24.356;2023-03-01T21:43:36;19.00;;;12.70;;
32824;SDS011;51060;42.640;24.356;2023-03-01T21:46:03;14.23;;;10.50;;
32824;SDS011;51060;42.640;24.356;2023-03-01T21:48:31;15.13;;;9.73;;
32824;SDS011;51060;42.640;24.356;2023-03-01T21:51:01;19.90;;;12.50;;
32824;SDS011;51060;42.640;24.356;2023-03-01T21:53:28;24.47;;;14.80;;
32824;SDS011;51060;42.640;24.356;2023-03-01T21:55:54;23.20;;;15.53;;
32824;SDS011;51060;42.640;24.356;2023-03-01T21:58:20;22.90;;;15.60;;
32824;SDS011;51060;42.640;24.356;2023-03-01T22:00:46;22.07;;;15.10;;
32824;SDS011;51060;42.640;24.356;2023-03-01T22:03:12;17.77;;;11.73;;
32824;SDS011;51060;42.640;24.356;2023-03-01T22:05:38;17.73;;;11.53;;
32824;SDS011;51060;42.640;24.356;2023-03-01T22:08:04;18.80;;;12.50;;
32824;SDS011;51060;42.640;24.356;2023-03-01T22:10:30;20.63;;;13.43;;
32824;SDS011;51060;42.640;24.356;2023-03-01T22:12:56;21.93;;;13.67;;
32824;SDS011;51060;42.640;24.356;2023-03-01T22:15:23;22.07;;;14.80;;
32824;SDS011;51060;42.640;24.356;2023-03-01T22:17:50;30.90;;;18.47;;
32824;SDS011;51060;42.640;24.356;2023-03-01T22:20:16;23.93;;;15.67;;
32824;SDS011;51060;42.640;24.356;2023-03-01T22:22:42;21.30;;;16.77;;
32824;SDS011;51060;42.640;24.356;2023-03-01T22:25:08;23.03;;;17.43;;
32824;SDS011;51060;42.640;24.356;2023-03-01T22:27:34;26.57;;;18.50;;
32824;SDS011;51060;42.640;24.356;2023-03-01T22:30:05;26.60;;;20.70;;
32824;SDS011;51060;42.640;24.356;2023-03-01T22:32:32;40.17;;;26.00;;
32824;SDS011;51060;42.640;24.356;2023-03-01T22:34:58;42.53;;;26.33;;
32824;SDS011;51060;42.640;24.356;2023-03-01T22:37:23;40.60;;;25.30;;
32824;SDS011;51060;42.640;24.356;2023-03-01T22:39:49;41.83;;;23.27;;
32824;SDS011;51060;42.640;24.356;2023-03-01T22:42:14;32.87;;;20.10;;
32824;SDS011;51060;42.640;24.356;2023-03-01T22:44:40;33.33;;;21.67;;
32824;SDS011;51060;42.640;24.356;2023-03-01T22:47:06;26.07;;;18.83;;
32824;SDS011;51060;42.640;24.356;2023-03-01T22:49:31;23.57;;;18.00;;
32824;SDS011;51060;42.640;24.356;2023-03-01T22:51:57;27.50;;;18.70;;
32824;SDS011;51060;42.640;24.356;2023-03-01T22:54:23;40.17;;;24.67;;
32824;SDS011;51060;42.640;24.356;2023-03-01T22:56:48;32.40;;;22.53;;
32824;SDS011;51060;42.640;24.356;2023-03-01T22:59:15;56.33;;;32.17;;
32824;SDS011;51060;42.640;24.356;2023-03-01T23:01:43;46.40;;;26.87;;
32824;SDS011;51060;42.640;24.356;2023-03-01T23:04:09;24.83;;;16.83;;
32824;SDS011;51060;42.640;24.356;2023-03-01T23:06:35;23.77;;;14.57;;
32824;SDS011;51060;42.640;24.356;2023-03-01T23:09:14;19.43;;;13.10;;
32824;SDS011;51060;42.640;24.356;2023-03-01T23:11:41;22.07;;;15.37;;
32824;SDS011;51060;42.640;24.356;2023-03-01T23:14:07;23.40;;;15.40;;
32824;SDS011;51060;42.640;24.356;2023-03-01T23:16:33;11.93;;;7.73;;
32824;SDS011;51060;42.640;24.356;2023-03-01T23:18:58;8.03;;;5.57;;
32824;SDS011;51060;42.640;24.356;2023-03-01T23:21:24;7.10;;;5.00;;
32824;SDS011;51060;42.640;24.356;2023-03-01T23:23:50;4.20;;;3.00;;
32824;SDS011;51060;42.640;24.356;2023-03-01T23:26:16;4.50;;;3.40;;
32824;SDS011;51060;42.640;24.356;2023-03-01T23:28:43;4.47;;;3.70;;
32824;SDS011;51060;42.640;24.356;2023-03-01T23:31:09;6.47;;;5.10;;
32824;SDS011;51060;42.640;24.356;2023-03-01T23:33:37;17.23;;;11.20;;
32824;SDS011;51060;42.640;24.356;2023-03-01T23:36:13;14.73;;;9.57;;
32824;SDS011;51060;42.640;24.356;2023-03-01T23:38:40;7.00;;;5.10;;
32824;SDS011;51060;42.640;24.356;2023-03-01T23:41:09;8.60;;;6.30;;
32824;SDS011;51060;42.640;24.356;2023-03-01T23:43:35;7.43;;;5.00;;
32824;SDS011;51060;42.640;24.356;2023-03-01T23:46:01;10.73;;;8.27;;
32824;SDS011;51060;42.640;24.356;2023-03-01T23:48:26;13.53;;;9.67;;
32824;SDS011;51060;42.640;24.356;2023-03-01T23:50:52;14.47;;;9.77;;
32824;SDS011;51060;42.640;24.356;2023-03-01T23:53:18;9.40;;;7.13;;
32824;SDS011;51060;42.640;24.356;2023-03-01T23:55:46;9.57;;;7.13;;
32824;SDS011;51060;42.640;24.356;2023-03-01T23:58:15;14.70;;;8.33;;
